createdAt,value
2022-08-03T00:00:28.055Z,1.77
2022-08-03T00:02:55.215Z,1.42
2022-08-03T00:05:22.332Z,1.60
2022-08-03T00:07:49.511Z,1.38
2022-08-03T00:10:16.831Z,1.58
2022-08-03T00:12:43.921Z,2.28
2022-08-03T00:15:15.227Z,2.00
2022-08-03T00:17:53.269Z,2.05
2022-08-03T00:20:22.013Z,1.50
2022-08-03T00:22:49.703Z,1.63
2022-08-03T00:25:17.387Z,1.92
2022-08-03T00:27:44.493Z,1.83
2022-08-03T00:30:12.001Z,1.77
2022-08-03T00:32:44.330Z,1.88
2022-08-03T00:35:32.489Z,2.05
2022-08-03T00:38:00.190Z,1.63
2022-08-03T00:40:27.598Z,1.33
2022-08-03T00:43:02.710Z,1.42
2022-08-03T00:45:32.696Z,2.00
2022-08-03T00:48:00.334Z,1.60
2022-08-03T00:50:29.402Z,2.15
2022-08-03T00:52:59.607Z,2.15
2022-08-03T00:55:27.131Z,1.70
2022-08-03T00:57:54.437Z,1.77
2022-08-03T01:00:24.303Z,1.80
2022-08-03T01:02:52.542Z,1.80
2022-08-03T01:05:21.085Z,1.83
2022-08-03T01:08:06.415Z,2.33
2022-08-03T01:10:49.572Z,1.85
2022-08-03T01:14:01.226Z,1.90
2022-08-03T01:16:54.580Z,1.83
2022-08-03T01:19:43.046Z,1.98
2022-08-03T01:22:31.719Z,1.92
2022-08-03T01:25:29.760Z,2.35
2022-08-03T01:28:08.781Z,2.70
2022-08-03T01:30:43.291Z,1.80
2022-08-03T01:33:19.173Z,2.50
2022-08-03T01:35:54.374Z,1.45
2022-08-03T01:38:32.122Z,2.38
2022-08-03T01:41:11.913Z,2.00
2022-08-03T01:43:58.953Z,1.63
2022-08-03T01:46:32.411Z,1.85
2022-08-03T01:49:00.844Z,2.00
2022-08-03T01:52:02.919Z,1.80
2022-08-03T01:54:27.867Z,1.70
2022-08-03T01:56:57.578Z,1.85
2022-08-03T01:59:26.634Z,2.17
2022-08-03T02:02:28.462Z,2.00
2022-08-03T02:04:43.715Z,1.55
2022-08-03T02:07:12.121Z,2.58
2022-08-03T02:09:41.731Z,1.70
2022-08-03T02:12:10.375Z,1.98
2022-08-03T02:14:39.617Z,2.10
2022-08-03T02:17:08.330Z,1.77
2022-08-03T02:19:36.856Z,1.70
2022-08-03T02:22:08.519Z,1.80
2022-08-03T02:24:35.594Z,2.13
2022-08-03T02:27:06.291Z,1.65
2022-08-03T02:29:39.103Z,1.67
2022-08-03T02:32:11.752Z,1.55
2022-08-03T02:34:41.971Z,1.88
2022-08-03T02:37:10.591Z,1.77
2022-08-03T02:39:39.825Z,2.25
2022-08-03T02:42:12.203Z,1.92
2022-08-03T02:44:43.828Z,1.80
2022-08-03T02:47:12.607Z,1.90
2022-08-03T02:49:50.671Z,1.95
2022-08-03T02:52:21.769Z,2.08
2022-08-03T02:54:51.200Z,2.20
2022-08-03T02:57:19.917Z,1.77
2022-08-03T02:59:47.845Z,2.03
2022-08-03T03:02:16.933Z,2.03
2022-08-03T03:05:53.565Z,2.45
2022-08-03T03:07:34.635Z,2.13
2022-08-03T03:10:18.954Z,2.20
2022-08-03T03:12:46.902Z,1.95
2022-08-03T03:15:13.889Z,2.67
2022-08-03T03:17:42.620Z,2.53
2022-08-03T03:20:10.223Z,2.42
2022-08-03T03:22:38.659Z,2.30
2022-08-03T03:25:08.310Z,2.53
2022-08-03T03:27:36.159Z,2.30
2022-08-03T03:30:04.377Z,2.28
2022-08-03T03:32:31.459Z,3.50
2022-08-03T03:35:01.999Z,2.17
2022-08-03T03:37:29.123Z,2.70
2022-08-03T03:39:56.250Z,2.50
2022-08-03T03:42:23.807Z,2.13
2022-08-03T03:44:51.533Z,2.13
2022-08-03T03:47:18.803Z,2.78
2022-08-03T03:49:59.737Z,2.30
2022-08-03T03:52:26.520Z,2.15
2022-08-03T03:54:56.404Z,2.58
2022-08-03T03:57:27.589Z,2.05
2022-08-03T03:59:54.745Z,2.30
2022-08-03T04:02:21.725Z,1.88
2022-08-03T04:05:07.127Z,2.30
2022-08-03T04:08:05.731Z,2.45
2022-08-03T04:10:54.383Z,2.63
2022-08-03T04:13:22.990Z,2.17
2022-08-03T04:15:51.978Z,2.03
2022-08-03T04:18:21.453Z,2.55
2022-08-03T04:20:50.456Z,2.78
2022-08-03T04:23:22.431Z,2.28
2022-08-03T04:25:51.613Z,2.13
2022-08-03T04:28:31.386Z,2.05
2022-08-03T04:31:01.195Z,2.33
2022-08-03T04:33:32.489Z,2.80
2022-08-03T04:36:03.803Z,2.88
2022-08-03T04:38:37.039Z,3.53
2022-08-03T04:41:04.978Z,2.40
2022-08-03T04:43:34.668Z,2.30
2022-08-03T04:46:02.995Z,3.35
2022-08-03T04:48:30.239Z,2.47
2022-08-03T04:50:57.606Z,3.22
2022-08-03T04:53:24.499Z,2.70
2022-08-03T04:55:51.404Z,2.70
2022-08-03T04:58:18.215Z,2.90
2022-08-03T05:00:45.723Z,3.10
2022-08-03T05:03:20.274Z,2.65
2022-08-03T05:06:09.391Z,2.42
2022-08-03T05:08:37.448Z,2.78
2022-08-03T05:11:13.862Z,2.90
2022-08-03T05:13:40.763Z,3.03
2022-08-03T05:16:07.578Z,2.80
2022-08-03T05:18:36.007Z,2.90
2022-08-03T05:21:03.049Z,3.15
2022-08-03T05:23:30.051Z,3.22
2022-08-03T05:25:57.185Z,3.42
2022-08-03T05:28:24.259Z,3.20
2022-08-03T05:30:51.272Z,2.85
2022-08-03T05:33:18.299Z,2.65
2022-08-03T05:35:56.830Z,2.72
2022-08-03T05:38:34.388Z,2.45
2022-08-03T05:41:21.624Z,2.97
2022-08-03T05:43:52.905Z,2.42
2022-08-03T05:46:21.155Z,2.40
2022-08-03T05:48:48.148Z,2.97
2022-08-03T05:51:15.254Z,2.72
2022-08-03T05:53:43.279Z,2.70
2022-08-03T05:56:13.746Z,2.63
2022-08-03T05:58:43.947Z,2.65
2022-08-03T06:01:11.110Z,2.60
2022-08-03T06:03:38.220Z,2.30
2022-08-03T06:06:05.269Z,2.53
2022-08-03T06:08:32.516Z,2.55
2022-08-03T06:10:59.583Z,2.63
2022-08-03T06:13:26.533Z,2.40
2022-08-03T06:15:53.579Z,3.05
2022-08-03T06:18:20.487Z,2.85
2022-08-03T06:20:49.419Z,1.77
2022-08-03T06:23:18.096Z,3.40
2022-08-03T06:25:48.714Z,2.22
2022-08-03T06:28:42.405Z,2.97
2022-08-03T06:31:03.658Z,2.45
2022-08-03T06:34:30.460Z,2.90
2022-08-03T06:36:21.177Z,2.97
2022-08-03T06:38:48.213Z,3.50
2022-08-03T06:41:15.142Z,3.17
2022-08-03T06:44:03.670Z,3.08
2022-08-03T06:46:30.343Z,2.65
2022-08-03T06:48:57.475Z,2.58
2022-08-03T06:52:06.041Z,3.17
2022-08-03T06:54:12.393Z,2.95
2022-08-03T06:56:39.625Z,2.80
2022-08-03T06:59:06.529Z,2.95
2022-08-03T07:01:33.602Z,3.38
2022-08-03T07:04:01.260Z,3.33
2022-08-03T07:06:28.085Z,3.00
2022-08-03T07:08:59.250Z,2.83
2022-08-03T07:11:26.883Z,2.80
2022-08-03T07:13:54.162Z,3.13
2022-08-03T07:16:21.114Z,2.72
2022-08-03T07:18:48.244Z,3.00
2022-08-03T07:21:16.779Z,2.83
2022-08-03T07:23:43.751Z,2.58
2022-08-03T07:26:10.731Z,2.55
2022-08-03T07:28:37.828Z,2.38
2022-08-03T07:31:04.873Z,2.38
2022-08-03T07:33:32.014Z,2.40
2022-08-03T07:35:58.902Z,2.28
2022-08-03T07:38:25.816Z,2.35
2022-08-03T07:40:54.065Z,2.33
2022-08-03T07:43:21.376Z,2.63
2022-08-03T07:45:48.471Z,2.03
2022-08-03T07:48:15.484Z,2.58
2022-08-03T07:50:42.624Z,2.47
2022-08-03T07:53:09.830Z,2.67
2022-08-03T07:55:36.840Z,2.05
2022-08-03T07:58:24.289Z,2.72
2022-08-03T08:00:53.243Z,2.50
2022-08-03T08:03:21.963Z,2.55
2022-08-03T08:05:49.587Z,1.88
2022-08-03T08:08:16.546Z,2.50
2022-08-03T08:10:57.629Z,1.98
2022-08-03T08:13:25.813Z,2.47
2022-08-03T08:15:52.925Z,2.30
2022-08-03T08:18:20.060Z,2.35
2022-08-03T08:20:46.963Z,1.75
2022-08-03T08:23:38.002Z,2.72
2022-08-03T08:26:01.096Z,2.00
2022-08-03T08:28:31.874Z,2.28
2022-08-03T08:31:00.925Z,2.08
2022-08-03T08:33:42.029Z,1.90
2022-08-03T08:36:15.689Z,2.58
2022-08-03T08:38:45.083Z,1.88
2022-08-03T08:41:13.970Z,2.10
2022-08-03T08:43:42.241Z,2.55
2022-08-03T08:46:22.915Z,1.95
2022-08-03T08:48:51.372Z,1.92
2022-08-03T08:51:21.021Z,1.70
2022-08-03T08:53:53.964Z,1.92
2022-08-03T08:56:25.598Z,2.25
2022-08-03T08:58:56.334Z,2.03
2022-08-03T09:01:23.753Z,2.03
2022-08-03T09:03:52.188Z,2.08
2022-08-03T09:06:19.078Z,2.10
2022-08-03T09:08:46.006Z,2.03
2022-08-03T09:11:13.215Z,1.85
2022-08-03T09:13:40.286Z,1.95
2022-08-03T09:16:16.289Z,1.88
2022-08-03T09:18:45.595Z,1.73
2022-08-03T09:21:32.151Z,2.00
2022-08-03T09:24:04.749Z,1.40
2022-08-03T09:26:33.399Z,1.75
2022-08-03T09:29:13.139Z,1.55
2022-08-03T09:31:46.035Z,1.90
2022-08-03T09:34:17.664Z,1.35
2022-08-03T09:36:47.364Z,1.52
2022-08-03T09:39:40.241Z,1.95
2022-08-03T09:42:14.694Z,1.58
2022-08-03T09:44:44.949Z,1.50
2022-08-03T09:47:14.535Z,1.48
2022-08-03T09:49:42.900Z,1.85
2022-08-03T09:52:39.324Z,2.22
2022-08-03T09:56:34.644Z,1.30
2022-08-03T09:58:07.159Z,1.98
2022-08-03T10:01:00.269Z,2.13
2022-08-03T10:03:30.255Z,1.77
2022-08-03T10:05:59.941Z,1.48
2022-08-03T10:08:27.127Z,1.27
2022-08-03T10:10:54.690Z,1.20
2022-08-03T10:13:23.289Z,1.40
2022-08-03T10:16:23.785Z,1.40
2022-08-03T10:18:37.867Z,1.30
2022-08-03T10:21:10.631Z,1.15
2022-08-03T10:23:40.391Z,1.13
2022-08-03T10:26:08.419Z,1.10
2022-08-03T10:28:44.742Z,1.20
2022-08-03T10:31:14.176Z,1.02
2022-08-03T10:33:53.093Z,0.95
2022-08-03T10:36:25.332Z,1.38
2022-08-03T10:38:53.707Z,1.13
2022-08-03T10:41:22.659Z,1.33
2022-08-03T10:43:49.665Z,1.20
2022-08-03T10:46:21.397Z,1.13
2022-08-03T10:48:51.749Z,1.48
2022-08-03T10:51:20.410Z,0.75
2022-08-03T10:53:54.597Z,1.30
2022-08-03T10:56:54.462Z,0.90
2022-08-03T10:59:46.848Z,1.05
2022-08-03T11:02:17.951Z,1.02
2022-08-03T11:04:45.308Z,1.30
2022-08-03T11:07:23.774Z,1.50
2022-08-03T11:09:55.817Z,1.13
2022-08-03T11:12:30.880Z,1.05
2022-08-03T11:15:07.306Z,1.27
2022-08-03T11:17:45.796Z,1.23
2022-08-03T11:20:14.041Z,1.20
2022-08-03T11:22:54.426Z,1.23
2022-08-03T11:25:53.078Z,1.35
2022-08-03T11:28:28.702Z,1.20
2022-08-03T11:30:55.803Z,1.13
2022-08-03T11:33:32.451Z,1.25
2022-08-03T11:36:02.740Z,1.10
2022-08-03T11:38:29.564Z,1.27
2022-08-03T11:40:56.840Z,1.45
2022-08-03T11:43:27.788Z,1.40
2022-08-03T11:46:06.137Z,1.10
2022-08-03T11:48:45.304Z,1.50
2022-08-03T11:51:27.097Z,1.02
2022-08-03T11:54:00.903Z,1.30
2022-08-03T11:56:29.180Z,1.23
2022-08-03T11:59:20.122Z,1.20
2022-08-03T12:01:46.207Z,1.17
2022-08-03T12:04:13.114Z,0.90
2022-08-03T12:06:55.272Z,1.40
2022-08-03T12:09:22.953Z,1.33
2022-08-03T12:11:59.710Z,1.10
2022-08-03T12:14:48.376Z,1.08
2022-08-03T12:17:16.719Z,1.38
2022-08-03T12:19:44.488Z,1.40
2022-08-03T12:22:11.827Z,1.15
2022-08-03T12:24:43.050Z,1.52
2022-08-03T12:27:10.326Z,1.50
2022-08-03T12:29:37.558Z,1.23
2022-08-03T12:32:04.637Z,1.40
2022-08-03T12:34:50.555Z,1.20
2022-08-03T12:37:24.057Z,2.00
2022-08-03T12:40:03.080Z,1.00
2022-08-03T12:42:38.819Z,1.50
2022-08-03T12:45:27.009Z,1.30
2022-08-03T12:48:01.933Z,1.63
2022-08-03T12:50:34.382Z,1.25
2022-08-03T12:53:10.130Z,1.33
2022-08-03T12:55:40.073Z,1.20
2022-08-03T12:58:36.749Z,1.00
2022-08-03T13:01:09.450Z,1.20
2022-08-03T13:03:49.809Z,1.17
2022-08-03T13:06:22.578Z,1.15
2022-08-03T13:08:53.657Z,1.15
2022-08-03T13:11:43.447Z,1.02
2022-08-03T13:14:13.509Z,1.25
2022-08-03T13:16:46.462Z,1.15
2022-08-03T13:19:15.418Z,1.05
2022-08-03T13:22:03.589Z,1.60
2022-08-03T13:24:31.582Z,1.48
2022-08-03T13:26:59.419Z,1.38
2022-08-03T13:29:26.353Z,1.05
2022-08-03T13:31:53.457Z,1.10
2022-08-03T13:34:23.413Z,1.33
2022-08-03T13:37:10.076Z,1.02
2022-08-03T13:39:57.914Z,1.48
2022-08-03T13:42:24.933Z,1.42
2022-08-03T13:44:52.559Z,1.20
2022-08-03T13:47:22.024Z,1.10
2022-08-03T13:49:59.780Z,1.30
2022-08-03T13:52:36.291Z,0.90
2022-08-03T13:55:05.847Z,1.00
2022-08-03T13:58:02.614Z,1.02
2022-08-03T14:00:27.434Z,1.10
2022-08-03T14:03:06.592Z,1.00
2022-08-03T14:05:34.615Z,1.00
2022-08-03T14:08:03.817Z,1.00
2022-08-03T14:10:31.541Z,0.93
2022-08-03T14:13:00.563Z,1.00
2022-08-03T14:15:28.846Z,1.00
2022-08-03T14:17:58.507Z,1.23
2022-08-03T14:20:38.783Z,1.15
2022-08-03T14:23:16.755Z,1.15
2022-08-03T14:25:50.313Z,0.95
2022-08-03T14:28:21.299Z,1.15
2022-08-03T14:30:48.737Z,0.85
2022-08-03T14:33:16.588Z,1.00
2022-08-03T14:35:43.712Z,0.90
2022-08-03T14:38:11.300Z,1.20
2022-08-03T14:40:38.356Z,0.98
2022-08-03T14:43:05.455Z,0.90
2022-08-03T14:45:33.000Z,1.50
2022-08-03T14:50:28.894Z,0.93
2022-08-03T14:50:51.898Z,1.48
2022-08-03T14:53:19.634Z,0.82
2022-08-03T14:55:50.801Z,0.93
2022-08-03T14:58:21.473Z,0.80
2022-08-03T15:00:49.507Z,0.65
2022-08-03T15:03:17.356Z,1.02
2022-08-03T15:05:45.011Z,1.00
2022-08-03T15:08:11.923Z,0.90
2022-08-03T15:10:43.902Z,0.90
2022-08-03T15:13:11.222Z,0.98
2022-08-03T15:15:38.559Z,1.15
2022-08-03T15:18:05.658Z,0.75
2022-08-03T15:20:43.721Z,0.98
2022-08-03T15:23:15.316Z,1.08
2022-08-03T15:26:06.549Z,0.93
2022-08-03T15:28:31.394Z,0.90
2022-08-03T15:30:58.732Z,1.58
2022-08-03T15:33:25.833Z,1.00
2022-08-03T15:35:53.450Z,0.88
2022-08-03T15:38:25.899Z,0.80
2022-08-03T15:40:57.101Z,1.08
2022-08-03T15:43:25.245Z,1.10
2022-08-03T15:46:12.775Z,0.93
2022-08-03T15:48:40.305Z,0.95
2022-08-03T15:51:09.462Z,0.98
2022-08-03T15:53:36.934Z,1.25
2022-08-03T15:56:10.018Z,1.25
2022-08-03T15:59:09.483Z,1.05
2022-08-03T16:01:26.814Z,1.02
2022-08-03T16:03:53.958Z,1.10
2022-08-03T16:06:29.573Z,0.90
2022-08-03T16:09:05.767Z,0.88
2022-08-03T16:11:51.534Z,1.10
2022-08-03T16:14:32.590Z,0.85
2022-08-03T16:17:03.089Z,0.90
2022-08-03T16:19:29.944Z,1.23
2022-08-03T16:21:56.839Z,1.00
2022-08-03T16:24:28.131Z,0.90
2022-08-03T16:26:55.985Z,0.90
2022-08-03T16:29:23.813Z,0.80
2022-08-03T16:31:52.300Z,0.80
2022-08-03T16:34:20.099Z,1.15
2022-08-03T16:36:47.177Z,1.13
2022-08-03T16:39:14.245Z,1.10
2022-08-03T16:41:53.731Z,1.05
2022-08-03T16:44:30.168Z,0.80
2022-08-03T16:46:57.775Z,0.80
2022-08-03T16:49:53.171Z,0.93
2022-08-03T16:52:12.970Z,1.15
2022-08-03T16:54:40.709Z,1.02
2022-08-03T16:57:11.082Z,1.00
2022-08-03T16:59:39.009Z,1.00
2022-08-03T17:02:10.615Z,0.90
2022-08-03T17:04:40.375Z,0.93
2022-08-03T17:07:18.679Z,0.90
2022-08-03T17:09:47.740Z,0.77
2022-08-03T17:12:15.380Z,0.70
2022-08-03T17:14:42.986Z,0.80
2022-08-03T17:17:21.136Z,0.80
2022-08-03T17:19:54.162Z,1.00
2022-08-03T17:22:28.065Z,1.10
2022-08-03T17:24:58.400Z,1.20
2022-08-03T17:28:50.947Z,0.98
2022-08-03T17:30:19.018Z,1.05
2022-08-03T17:32:52.602Z,1.02
2022-08-03T17:35:24.598Z,1.10
2022-08-03T17:38:03.688Z,0.93
2022-08-03T17:40:32.949Z,1.00
2022-08-03T17:43:02.487Z,0.93
2022-08-03T17:45:52.888Z,1.27
2022-08-03T17:48:26.253Z,1.15
2022-08-03T17:50:59.599Z,1.20
2022-08-03T17:53:33.685Z,1.13
2022-08-03T17:56:44.634Z,0.90
2022-08-03T17:59:51.947Z,1.17
2022-08-03T18:03:15.531Z,1.30
2022-08-03T18:06:11.635Z,1.60
2022-08-03T18:08:48.388Z,1.50
2022-08-03T18:11:21.946Z,1.90
2022-08-03T18:14:01.564Z,1.95
2022-08-03T18:16:38.671Z,1.65
2022-08-03T18:19:09.239Z,2.25
2022-08-03T18:22:02.227Z,1.75
2022-08-03T18:24:25.452Z,1.55
2022-08-03T18:26:54.796Z,1.50
2022-08-03T18:29:22.827Z,2.10
2022-08-03T18:32:02.517Z,1.63
2022-08-03T18:34:33.076Z,1.60
2022-08-03T18:37:07.317Z,1.90
2022-08-03T18:39:49.388Z,1.55
2022-08-03T18:42:19.059Z,1.75
2022-08-03T18:44:53.926Z,1.67
2022-08-03T18:47:52.651Z,1.75
2022-08-03T18:50:30.589Z,1.52
2022-08-03T18:53:16.305Z,1.70
2022-08-03T18:56:14.310Z,1.80
2022-08-03T18:59:15.824Z,1.63
2022-08-03T19:02:00.793Z,1.92
2022-08-03T19:04:35.301Z,1.67
2022-08-03T19:07:07.917Z,1.70
2022-08-03T19:10:00.217Z,1.67
2022-08-03T19:12:45.735Z,1.83
2022-08-03T19:15:15.542Z,1.85
2022-08-03T19:17:50.306Z,1.60
2022-08-03T19:20:25.312Z,1.73
2022-08-03T19:22:53.609Z,1.73
2022-08-03T19:25:35.240Z,1.80
2022-08-03T19:28:05.915Z,1.95
2022-08-03T19:30:38.766Z,1.92
2022-08-03T19:33:12.349Z,2.47
2022-08-03T19:35:51.561Z,1.92
2022-08-03T19:38:29.069Z,1.90
2022-08-03T19:41:01.053Z,2.10
2022-08-03T19:43:53.857Z,2.28
2022-08-03T19:46:30.357Z,2.45
2022-08-03T19:49:14.688Z,2.10
2022-08-03T19:52:01.713Z,2.13
2022-08-03T19:54:52.851Z,2.10
2022-08-03T20:00:13.990Z,2.17
2022-08-03T20:02:41.620Z,2.20
2022-08-03T20:05:14.880Z,2.03
2022-08-03T20:07:47.436Z,1.90
2022-08-03T20:10:16.116Z,1.90
2022-08-03T20:12:44.588Z,3.08
2022-08-03T20:15:12.122Z,2.65
2022-08-03T20:17:54.435Z,2.28
2022-08-03T20:20:33.427Z,1.88
2022-08-03T20:23:06.899Z,2.58
2022-08-03T20:25:48.726Z,1.90
2022-08-03T20:28:50.241Z,2.17
2022-08-03T20:31:20.839Z,2.30
2022-08-03T20:33:50.861Z,2.42
2022-08-03T20:36:19.081Z,2.10
2022-08-03T20:38:48.187Z,2.95
2022-08-03T20:41:20.066Z,2.22
2022-08-03T20:43:49.284Z,2.08
2022-08-03T20:49:07.142Z,2.00
2022-08-03T20:51:50.051Z,2.20
2022-08-03T20:54:29.018Z,2.38
2022-08-03T20:56:59.244Z,1.67
2022-08-03T20:59:46.814Z,1.98
2022-08-03T21:02:19.967Z,2.15
2022-08-03T21:04:56.414Z,2.17
2022-08-03T21:07:25.216Z,2.20
2022-08-03T21:10:15.374Z,2.20
2022-08-03T21:12:52.061Z,2.22
2022-08-03T21:13:03.269Z,2.08
2022-08-03T21:13:07.421Z,2.50
2022-08-03T21:16:02.436Z,2.72
2022-08-03T21:18:15.342Z,1.85
2022-08-03T21:20:45.523Z,2.03
2022-08-03T21:23:39.934Z,2.30
2022-08-03T21:26:01.936Z,2.33
2022-08-03T21:28:29.774Z,2.42
2022-08-03T21:30:58.736Z,2.83
2022-08-03T21:33:27.917Z,2.15
2022-08-03T21:35:55.176Z,1.83
2022-08-03T21:38:30.205Z,2.20
2022-08-03T21:40:57.492Z,2.22
2022-08-03T21:43:25.416Z,2.00
2022-08-03T21:46:05.040Z,2.35
2022-08-03T21:48:37.685Z,2.35
2022-08-03T21:51:06.519Z,2.33
2022-08-03T21:54:03.702Z,2.30
2022-08-03T21:56:22.448Z,2.00
2022-08-03T21:58:51.276Z,2.03
2022-08-03T22:01:24.913Z,2.13
2022-08-03T22:03:56.854Z,1.90
2022-08-03T22:06:27.727Z,2.20
2022-08-03T22:08:55.298Z,2.10
2022-08-03T22:11:22.421Z,2.13
2022-08-03T22:13:49.398Z,2.08
2022-08-03T22:16:16.624Z,1.98
2022-08-03T22:18:46.063Z,2.28
2022-08-03T22:21:16.705Z,2.67
2022-08-03T22:23:58.361Z,2.30
2022-08-03T22:26:34.816Z,2.50
2022-08-03T22:29:08.055Z,2.40
2022-08-03T22:31:58.856Z,2.50
2022-08-03T22:34:27.355Z,2.38
2022-08-03T22:36:57.871Z,2.28
2022-08-03T22:39:29.397Z,2.97
2022-08-03T22:42:00.335Z,3.60
2022-08-03T22:44:28.374Z,3.30
2022-08-03T22:46:55.939Z,2.45
2022-08-03T22:49:23.022Z,2.83
2022-08-03T22:51:52.797Z,3.08
2022-08-03T22:54:19.856Z,3.05
2022-08-03T22:56:47.210Z,3.05
2022-08-03T22:59:40.082Z,2.63
2022-08-03T23:02:20.264Z,2.40
2022-08-03T23:04:57.499Z,2.53
2022-08-03T23:07:36.446Z,2.70
2022-08-03T23:10:10.326Z,2.80
2022-08-03T23:12:39.536Z,2.35
2022-08-03T23:15:12.020Z,2.55
2022-08-03T23:17:57.939Z,2.50
2022-08-03T23:20:26.671Z,2.30
2022-08-03T23:22:54.693Z,2.78
2022-08-03T23:25:22.150Z,2.10
2022-08-03T23:28:05.038Z,2.45
2022-08-03T23:30:37.235Z,2.58
2022-08-03T23:33:04.505Z,3.13
2022-08-03T23:36:22.619Z,2.70
2022-08-03T23:38:37.055Z,3.00
2022-08-03T23:41:04.884Z,3.60
2022-08-03T23:43:51.397Z,3.05
2022-08-03T23:46:22.392Z,3.40
2022-08-03T23:48:50.838Z,3.92
2022-08-03T23:51:39.208Z,3.78
2022-08-03T23:54:09.203Z,3.65
2022-08-03T23:56:52.238Z,4.00
2022-08-03T23:59:38.328Z,3.53
